Rockingham, Australia
Current Conditions -  °F | °C
As of 12:00 PM on Monday 24 Nov 2014 (Local Time) from YPJT Reporting Station
Clear Clear  
Wind Chill: 75°   Ceiling: Unl
Heat Index: 75°   Visibility: 6mi
Dew Point: 37°   Wind: 8mph
Humidity: 25%   Direction: 70°ENE
Pressure: 30.12"   Gusts: NA
Location:  32.28°S, 115.73°E
Report Text: YPJT 240400Z AUTO 07007KT 040V120 9999 // NCD 24/03 Q1020
Loading
Personal Weather Stations






























Interactive Weather Map New forecast layout! Learn more

10-Day Weather Forecast

Advertisements
Track Severe Weather on mobile